createdAt,value
2023-06-27T00:02:23.094Z,1.45
2023-06-27T00:04:50.762Z,1.58
2023-06-27T00:07:18.406Z,1.38
2023-06-27T00:09:46.088Z,1.23
2023-06-27T00:12:13.872Z,1.42
2023-06-27T00:14:41.417Z,4.00
2023-06-27T00:17:13.621Z,1.48
2023-06-27T00:19:41.608Z,1.40
2023-06-27T00:22:10.782Z,1.48
2023-06-27T00:24:39.088Z,1.17
2023-06-27T00:27:07.491Z,1.55
2023-06-27T00:29:35.556Z,1.25
2023-06-27T00:32:03.243Z,1.58
2023-06-27T00:34:30.831Z,1.40
2023-06-27T00:36:58.450Z,1.75
2023-06-27T00:39:26.146Z,1.50
2023-06-27T00:41:55.456Z,1.33
2023-06-27T00:44:23.122Z,1.98
2023-06-27T00:46:53.220Z,1.60
2023-06-27T00:49:21.964Z,1.73
2023-06-27T00:51:50.899Z,1.10
2023-06-27T00:54:19.647Z,1.40
2023-06-27T00:56:47.552Z,1.35
2023-06-27T00:59:15.253Z,1.15
2023-06-27T01:01:43.399Z,1.60
2023-06-27T01:04:10.986Z,3.50
2023-06-27T01:06:45.763Z,1.85
2023-06-27T01:09:39.232Z,1.10
2023-06-27T01:12:28.659Z,1.73
2023-06-27T01:15:00.079Z,2.05
2023-06-27T01:17:34.076Z,1.58
2023-06-27T01:20:03.307Z,1.30
2023-06-27T01:22:46.569Z,2.08
2023-06-27T01:25:14.627Z,2.15
2023-06-27T01:27:42.305Z,1.58
2023-06-27T01:30:10.447Z,1.40
2023-06-27T01:33:02.903Z,1.50
2023-06-27T01:40:39.115Z,1.55
2023-06-27T01:43:11.796Z,2.88
2023-06-27T01:45:42.295Z,1.80
2023-06-27T01:48:10.393Z,1.70
2023-06-27T01:50:38.101Z,1.70
2023-06-27T01:53:05.773Z,1.80
2023-06-27T01:55:34.206Z,1.90
2023-06-27T01:58:03.002Z,1.60
2023-06-27T02:00:30.862Z,2.42
2023-06-27T02:02:58.540Z,1.63
2023-06-27T02:05:26.257Z,2.42
2023-06-27T02:07:53.826Z,2.63
2023-06-27T02:10:21.650Z,2.03
2023-06-27T02:12:49.179Z,1.88
2023-06-27T02:15:16.710Z,3.08
2023-06-27T02:17:44.320Z,2.38
2023-06-27T02:20:12.193Z,3.00
2023-06-27T02:22:39.779Z,1.92
2023-06-27T02:25:07.531Z,2.97
2023-06-27T02:27:35.150Z,2.47
2023-06-27T02:30:02.961Z,2.63
2023-06-27T02:32:30.755Z,2.65
2023-06-27T02:34:58.298Z,3.60
2023-06-27T02:37:25.921Z,2.92
2023-06-27T02:39:53.757Z,3.25
2023-06-27T02:42:21.413Z,2.85
2023-06-27T02:44:49.786Z,3.13
2023-06-27T02:47:17.962Z,3.30
2023-06-27T02:49:45.506Z,2.45
2023-06-27T02:52:13.086Z,3.67
2023-06-27T02:54:40.666Z,3.45
2023-06-27T02:57:08.508Z,3.30
2023-06-27T02:59:36.131Z,3.80
2023-06-27T03:02:04.074Z,3.05
2023-06-27T03:04:31.829Z,3.45
2023-06-27T03:06:59.497Z,3.08
2023-06-27T03:09:27.184Z,3.67
2023-06-27T03:11:54.829Z,4.45
2023-06-27T03:14:22.844Z,3.33
2023-06-27T03:16:50.519Z,3.92
2023-06-27T03:19:22.497Z,3.35
2023-06-27T03:21:55.020Z,3.67
2023-06-27T03:24:22.575Z,3.03
2023-06-27T03:26:50.129Z,2.75
2023-06-27T03:29:17.678Z,3.42
2023-06-27T03:31:45.288Z,3.35
2023-06-27T03:34:12.944Z,3.03
2023-06-27T03:36:40.557Z,4.25
2023-06-27T03:39:08.141Z,3.35
2023-06-27T03:41:35.783Z,2.88
2023-06-27T03:44:03.486Z,4.10
2023-06-27T03:46:31.063Z,4.25
2023-06-27T03:49:00.005Z,2.45
2023-06-27T03:51:28.453Z,2.75
2023-06-27T03:53:56.103Z,3.30
2023-06-27T03:56:23.741Z,3.38
2023-06-27T03:58:51.402Z,2.95
2023-06-27T04:01:19.049Z,3.35
2023-06-27T04:03:47.529Z,2.80
2023-06-27T04:06:15.265Z,2.78
2023-06-27T04:08:43.981Z,2.63
2023-06-27T04:11:11.559Z,2.97
2023-06-27T04:13:39.302Z,3.42
2023-06-27T04:16:07.252Z,1.75
2023-06-27T04:18:34.826Z,2.08
2023-06-27T04:21:02.372Z,1.73
2023-06-27T04:23:29.971Z,2.88
2023-06-27T04:26:05.872Z,2.45
2023-06-27T04:28:33.735Z,2.17
2023-06-27T04:31:02.631Z,1.63
2023-06-27T04:33:31.406Z,2.60
2023-06-27T04:36:02.405Z,2.15
2023-06-27T04:38:38.515Z,2.42
2023-06-27T04:41:10.429Z,3.17
2023-06-27T04:43:40.344Z,1.95
2023-06-27T04:46:08.436Z,2.78
2023-06-27T04:48:36.106Z,3.47
2023-06-27T04:51:04.345Z,3.42
2023-06-27T04:53:33.342Z,3.75
2023-06-27T04:56:01.044Z,3.00
2023-06-27T04:58:28.889Z,3.15
2023-06-27T05:00:56.637Z,2.95
2023-06-27T05:03:24.355Z,3.72
2023-06-27T05:05:52.017Z,3.53
2023-06-27T05:08:19.683Z,3.35
2023-06-27T05:10:50.114Z,3.80
2023-06-27T05:13:17.903Z,2.83
2023-06-27T05:15:47.344Z,5.13
2023-06-27T05:18:16.414Z,3.35
2023-06-27T05:20:44.772Z,2.60
2023-06-27T05:23:12.896Z,2.97
2023-06-27T05:25:40.886Z,3.80
2023-06-27T05:28:09.160Z,3.20
2023-06-27T05:30:36.882Z,2.67
2023-06-27T05:33:04.785Z,2.50
2023-06-27T05:35:32.554Z,2.47
2023-06-27T05:38:01.271Z,2.50
2023-06-27T05:40:30.337Z,3.38
2023-06-27T05:42:57.968Z,3.03
2023-06-27T05:45:25.953Z,3.60
2023-06-27T05:47:53.731Z,3.10
2023-06-27T05:50:21.544Z,3.35
2023-06-27T05:52:49.296Z,3.58
2023-06-27T05:55:17.067Z,3.40
2023-06-27T05:57:44.717Z,2.92
2023-06-27T06:00:14.585Z,3.40
2023-06-27T06:02:44.644Z,2.65
2023-06-27T06:05:12.952Z,2.15
2023-06-27T06:07:43.641Z,2.75
2023-06-27T06:10:12.669Z,3.08
2023-06-27T06:12:40.929Z,1.88
2023-06-27T06:15:09.233Z,1.83
2023-06-27T06:17:37.451Z,1.55
2023-06-27T06:20:10.045Z,1.50
2023-06-27T06:22:38.479Z,2.10
2023-06-27T06:25:06.840Z,1.58
2023-06-27T06:27:34.527Z,1.60
2023-06-27T06:30:02.440Z,1.42
2023-06-27T06:32:30.949Z,2.15
2023-06-27T06:34:59.908Z,0.80
2023-06-27T06:37:27.730Z,0.88
2023-06-27T06:39:55.516Z,0.77
2023-06-27T06:42:23.173Z,1.00
2023-06-27T06:44:50.867Z,0.75
2023-06-27T06:47:18.538Z,1.23
2023-06-27T06:49:46.401Z,0.70
2023-06-27T06:52:14.158Z,0.80
2023-06-27T06:54:44.717Z,1.27
2023-06-27T06:57:12.610Z,0.82
2023-06-27T06:59:40.266Z,0.77
2023-06-27T07:02:08.033Z,0.77
2023-06-27T07:04:35.839Z,0.43
2023-06-27T07:07:04.117Z,0.68
2023-06-27T07:09:31.765Z,0.68
2023-06-27T07:11:59.915Z,0.55
2023-06-27T07:14:28.004Z,0.70
2023-06-27T07:16:55.630Z,0.52
2023-06-27T07:19:23.920Z,0.50
2023-06-27T07:21:51.574Z,1.00
2023-06-27T07:24:19.172Z,0.55
2023-06-27T07:26:46.820Z,0.70
2023-06-27T07:29:14.458Z,0.57
2023-06-27T07:31:42.099Z,0.50
2023-06-27T07:34:09.815Z,0.55
2023-06-27T07:36:37.611Z,0.90
2023-06-27T07:39:06.421Z,0.47
2023-06-27T07:41:34.064Z,0.77
2023-06-27T07:44:01.959Z,0.60
2023-06-27T07:46:30.223Z,0.47
2023-06-27T07:49:00.584Z,0.50
2023-06-27T07:51:29.613Z,0.63
2023-06-27T07:53:58.109Z,0.70
2023-06-27T07:56:26.042Z,0.38
2023-06-27T07:58:53.950Z,0.60
2023-06-27T08:01:21.751Z,0.85
2023-06-27T08:03:49.474Z,0.70
2023-06-27T08:06:17.219Z,0.70
2023-06-27T08:08:45.047Z,0.57
2023-06-27T08:11:12.805Z,0.70
2023-06-27T08:13:42.689Z,0.50
2023-06-27T08:16:11.966Z,0.60
2023-06-27T08:18:39.541Z,0.32
2023-06-27T08:21:07.206Z,0.60
2023-06-27T08:23:34.918Z,0.40
2023-06-27T08:26:02.515Z,0.30
2023-06-27T08:28:30.722Z,0.60
2023-06-27T08:30:59.431Z,0.40
2023-06-27T08:33:27.069Z,0.60
2023-06-27T08:35:55.657Z,1.35
2023-06-27T08:38:24.338Z,0.50
2023-06-27T08:40:56.112Z,0.55
2023-06-27T08:43:24.657Z,0.43
2023-06-27T08:45:55.107Z,0.45
2023-06-27T08:48:23.576Z,0.82
2023-06-27T08:50:54.938Z,0.60
2023-06-27T08:53:24.685Z,0.50
2023-06-27T08:56:08.070Z,0.43
2023-06-27T08:58:52.371Z,0.30
2023-06-27T09:01:22.818Z,0.40
2023-06-27T09:03:51.062Z,0.50
2023-06-27T09:06:19.800Z,0.35
2023-06-27T09:08:47.772Z,0.90
2023-06-27T09:11:15.774Z,0.65
2023-06-27T09:13:44.033Z,0.45
2023-06-27T09:16:12.109Z,0.43
2023-06-27T09:18:40.890Z,0.65
2023-06-27T09:21:08.871Z,0.40
2023-06-27T09:23:36.832Z,0.68
2023-06-27T09:26:14.829Z,0.40
2023-06-27T09:28:50.849Z,0.30
2023-06-27T09:31:22.707Z,0.50
2023-06-27T09:39:09.997Z,0.52
2023-06-27T09:41:46.916Z,0.43
2023-06-27T09:44:18.179Z,0.32
2023-06-27T09:46:46.882Z,0.30
2023-06-27T09:49:16.219Z,0.60
2023-06-27T09:51:52.026Z,0.50
2023-06-27T09:54:22.494Z,0.43
2023-06-27T09:56:54.037Z,0.40
2023-06-27T09:59:25.189Z,0.45
2023-06-27T10:01:54.716Z,0.50
2023-06-27T10:04:39.039Z,0.50
2023-06-27T10:07:09.278Z,0.70
2023-06-27T10:09:39.452Z,1.15
2023-06-27T10:12:09.251Z,0.50
2023-06-27T10:14:37.674Z,0.38
2023-06-27T10:17:08.829Z,0.40
2023-06-27T10:19:37.648Z,0.50
2023-06-27T10:22:16.333Z,0.40
2023-06-27T10:24:47.284Z,1.00
2023-06-27T10:27:21.303Z,0.40
2023-06-27T10:29:49.316Z,0.45
2023-06-27T10:32:20.455Z,0.93
2023-06-27T10:34:48.478Z,0.45
2023-06-27T10:37:27.041Z,0.50
2023-06-27T10:40:02.262Z,0.80
2023-06-27T10:42:32.609Z,0.30
2023-06-27T10:45:06.932Z,0.55
2023-06-27T10:47:46.822Z,0.50
2023-06-27T10:50:22.834Z,0.70
2023-06-27T10:53:08.800Z,0.50
2023-06-27T10:55:38.871Z,0.57
2023-06-27T10:58:15.529Z,0.60
2023-06-27T11:00:45.538Z,0.63
2023-06-27T11:03:13.891Z,0.50
2023-06-27T11:05:45.399Z,0.70
2023-06-27T11:08:16.652Z,0.43
2023-06-27T11:11:04.620Z,0.30
2023-06-27T11:13:36.190Z,0.50
2023-06-27T11:16:05.108Z,0.50
2023-06-27T11:18:33.679Z,0.50
2023-06-27T11:21:01.491Z,0.40
2023-06-27T11:23:31.923Z,0.57
2023-06-27T11:26:00.394Z,0.35
2023-06-27T11:28:28.177Z,0.80
2023-06-27T11:31:03.038Z,0.88
2023-06-27T11:33:30.994Z,0.57
2023-06-27T11:36:01.227Z,0.47
2023-06-27T11:38:30.291Z,0.50
2023-06-27T11:40:58.258Z,0.60
2023-06-27T11:43:26.550Z,0.90
2023-06-27T11:45:56.320Z,0.40
2023-06-27T11:48:23.968Z,0.73
2023-06-27T11:50:59.579Z,0.47
2023-06-27T11:53:29.072Z,0.70
2023-06-27T11:58:32.539Z,0.73
2023-06-27T12:01:01.565Z,0.57
2023-06-27T12:03:35.427Z,0.57
2023-06-27T12:06:03.406Z,0.50
2023-06-27T12:08:32.931Z,0.63
2023-06-27T12:11:03.386Z,0.85
2023-06-27T12:13:39.466Z,0.45
2023-06-27T12:16:08.797Z,0.55
2023-06-27T12:18:36.417Z,0.40
2023-06-27T12:21:03.994Z,1.30
2023-06-27T12:23:32.350Z,0.40
2023-06-27T12:26:00.208Z,0.50
2023-06-27T12:28:27.951Z,1.55
2023-06-27T12:30:55.772Z,0.40
2023-06-27T12:33:23.383Z,0.75
2023-06-27T12:35:52.956Z,0.40
2023-06-27T12:38:20.603Z,0.60
2023-06-27T12:40:48.276Z,0.85
2023-06-27T12:43:15.833Z,0.52
2023-06-27T12:45:44.832Z,0.40
2023-06-27T12:48:12.853Z,0.43
2023-06-27T12:50:40.842Z,1.50
2023-06-27T12:53:11.405Z,0.70
2023-06-27T12:55:38.957Z,0.50
2023-06-27T12:58:06.624Z,0.47
2023-06-27T13:00:38.874Z,0.68
2023-06-27T13:03:18.028Z,0.40
2023-06-27T13:05:47.423Z,0.40
2023-06-27T13:08:15.818Z,0.50
2023-06-27T13:10:44.373Z,0.43
2023-06-27T13:13:12.043Z,0.60
2023-06-27T13:15:41.972Z,0.52
2023-06-27T13:18:10.781Z,0.57
2023-06-27T13:20:38.662Z,0.50
2023-06-27T13:23:07.425Z,0.50
2023-06-27T13:25:35.191Z,0.70
2023-06-27T13:28:02.872Z,0.93
2023-06-27T13:30:30.513Z,0.50
2023-06-27T13:32:58.181Z,0.60
2023-06-27T13:35:25.867Z,0.50
2023-06-27T13:38:01.389Z,0.50
2023-06-27T13:40:30.330Z,0.50
2023-06-27T13:42:58.309Z,0.47
2023-06-27T13:45:26.216Z,0.30
2023-06-27T13:47:54.343Z,0.32
2023-06-27T13:50:22.251Z,0.60
2023-06-27T13:52:49.885Z,0.40
2023-06-27T13:55:17.535Z,1.23
2023-06-27T13:57:45.253Z,0.40
2023-06-27T14:00:13.646Z,0.63
2023-06-27T14:02:41.410Z,0.40
2023-06-27T14:05:10.784Z,0.60
2023-06-27T14:07:39.491Z,0.30
2023-06-27T14:10:07.646Z,0.50
2023-06-27T14:12:35.373Z,0.47
2023-06-27T14:15:04.449Z,0.50
2023-06-27T14:17:33.565Z,0.50
2023-06-27T14:20:01.475Z,0.38
2023-06-27T14:22:29.187Z,0.60
2023-06-27T14:24:56.759Z,0.50
2023-06-27T14:27:26.860Z,0.47
2023-06-27T14:29:54.596Z,0.52
2023-06-27T14:32:23.150Z,0.50
2023-06-27T14:34:50.764Z,0.50
2023-06-27T14:37:18.408Z,0.50
2023-06-27T14:39:45.986Z,0.60
2023-06-27T14:42:13.642Z,0.50
2023-06-27T14:44:41.229Z,0.40
2023-06-27T14:47:09.141Z,0.70
2023-06-27T14:49:36.903Z,0.60
2023-06-27T14:52:06.845Z,0.65
2023-06-27T14:54:34.444Z,0.50
2023-06-27T14:57:03.015Z,0.45
2023-06-27T14:59:31.718Z,0.40
2023-06-27T15:01:59.463Z,0.68
2023-06-27T15:04:27.046Z,0.50
2023-06-27T15:06:55.843Z,0.88
2023-06-27T15:09:24.091Z,0.60
2023-06-27T15:11:51.675Z,0.70
2023-06-27T15:14:19.478Z,0.60
2023-06-27T15:16:47.075Z,0.60
2023-06-27T15:19:14.762Z,0.80
2023-06-27T15:21:42.566Z,0.90
2023-06-27T15:24:10.307Z,0.50
2023-06-27T15:26:37.904Z,0.75
2023-06-27T15:29:34.822Z,0.55
2023-06-27T15:32:02.429Z,1.10
2023-06-27T15:34:29.994Z,0.70
2023-06-27T15:36:57.547Z,0.80
2023-06-27T15:39:25.231Z,0.50
2023-06-27T15:41:52.838Z,1.13
2023-06-27T15:44:20.764Z,0.70
2023-06-27T15:46:49.563Z,0.68
2023-06-27T15:49:17.324Z,0.43
2023-06-27T15:51:45.432Z,1.27
2023-06-27T15:54:14.576Z,0.50
2023-06-27T15:56:42.823Z,0.52
2023-06-27T15:59:10.424Z,0.57
2023-06-27T16:01:38.041Z,0.55
2023-06-27T16:04:05.911Z,0.40
2023-06-27T16:06:36.539Z,0.82
2023-06-27T16:09:05.538Z,0.50
2023-06-27T16:11:34.015Z,0.52
2023-06-27T16:14:01.970Z,0.73
2023-06-27T16:16:29.647Z,0.40
2023-06-27T16:18:57.231Z,0.47
2023-06-27T16:21:24.955Z,0.70
2023-06-27T16:23:52.734Z,1.23
2023-06-27T16:26:20.372Z,0.60
2023-06-27T16:28:48.016Z,0.60
2023-06-27T16:31:15.639Z,0.50
2023-06-27T16:33:43.283Z,0.50
2023-06-27T16:36:12.749Z,0.50
2023-06-27T16:38:40.774Z,0.60
2023-06-27T16:41:08.667Z,0.60
2023-06-27T16:43:36.367Z,0.57
2023-06-27T16:46:04.153Z,0.50
2023-06-27T16:48:31.763Z,0.73
2023-06-27T16:50:59.341Z,0.70
2023-06-27T16:53:26.956Z,0.70
2023-06-27T16:55:54.503Z,0.60
2023-06-27T16:58:22.320Z,0.70
2023-06-27T17:00:49.890Z,0.50
2023-06-27T17:03:19.361Z,1.23
2023-06-27T17:05:47.278Z,0.50
2023-06-27T17:08:15.318Z,0.55
2023-06-27T17:10:45.904Z,0.77
2023-06-27T17:13:15.643Z,0.50
2023-06-27T17:15:44.755Z,0.70
2023-06-27T17:18:12.725Z,0.70
2023-06-27T17:20:40.341Z,0.60
2023-06-27T17:23:09.953Z,1.00
2023-06-27T17:25:37.558Z,0.47
2023-06-27T17:28:05.499Z,0.60
2023-06-27T17:30:33.257Z,0.60
2023-06-27T17:33:00.985Z,0.60
2023-06-27T17:35:28.738Z,0.68
2023-06-27T17:37:56.288Z,0.57
2023-06-27T17:40:24.232Z,0.60
2023-06-27T17:42:51.918Z,0.43
2023-06-27T17:45:19.605Z,0.43
2023-06-27T17:47:47.250Z,0.40
2023-06-27T17:50:14.961Z,0.50
2023-06-27T17:52:43.701Z,0.70
2023-06-27T17:55:11.819Z,0.40
2023-06-27T17:57:39.484Z,0.60
2023-06-27T18:00:07.976Z,0.57
2023-06-27T18:02:36.933Z,0.50
2023-06-27T18:05:04.677Z,0.40
2023-06-27T18:07:37.855Z,0.43
2023-06-27T18:10:08.230Z,0.73
2023-06-27T18:12:35.828Z,0.80
2023-06-27T18:15:05.198Z,0.52
2023-06-27T18:17:32.901Z,0.50
2023-06-27T18:20:00.616Z,0.50
2023-06-27T18:22:28.304Z,0.60
2023-06-27T18:24:55.988Z,0.75
2023-06-27T18:27:23.685Z,0.88
2023-06-27T18:29:51.380Z,0.40
2023-06-27T18:32:19.260Z,0.85
2023-06-27T18:34:47.080Z,0.52
2023-06-27T18:37:14.719Z,0.68
2023-06-27T18:39:42.348Z,0.57
2023-06-27T18:42:09.915Z,0.50
2023-06-27T18:44:37.947Z,0.50
2023-06-27T18:47:05.788Z,0.60
2023-06-27T18:49:33.849Z,0.50
2023-06-27T18:52:04.891Z,0.43
2023-06-27T18:54:33.676Z,0.43
2023-06-27T18:57:01.276Z,0.93
2023-06-27T18:59:28.931Z,0.65
2023-06-27T19:01:56.626Z,0.50
2023-06-27T19:04:24.359Z,0.55
2023-06-27T19:06:52.873Z,0.70
2023-06-27T19:09:21.124Z,0.50
2023-06-27T19:11:48.944Z,0.52
2023-06-27T19:14:17.721Z,2.30
2023-06-27T19:16:45.740Z,0.40
2023-06-27T19:19:14.255Z,0.60
2023-06-27T19:21:42.934Z,0.60
2023-06-27T19:24:12.309Z,0.43
2023-06-27T19:26:40.017Z,0.50
2023-06-27T19:29:08.346Z,0.73
2023-06-27T19:31:36.555Z,0.60
2023-06-27T19:34:06.390Z,1.08
2023-06-27T19:36:34.405Z,0.43
2023-06-27T19:39:02.785Z,1.45
2023-06-27T19:41:30.929Z,0.70
2023-06-27T19:43:59.459Z,0.70
2023-06-27T19:46:27.622Z,0.70
2023-06-27T19:48:55.887Z,0.80
2023-06-27T19:51:23.887Z,0.80
2023-06-27T19:53:51.829Z,0.80
2023-06-27T19:56:20.030Z,1.38
2023-06-27T19:58:48.280Z,1.10
2023-06-27T20:01:16.481Z,0.88
2023-06-27T20:03:44.891Z,0.82
2023-06-27T20:06:13.322Z,0.82
2023-06-27T20:08:42.031Z,1.25
2023-06-27T20:11:10.619Z,0.80
2023-06-27T20:13:39.889Z,0.93
2023-06-27T20:16:07.972Z,1.00
2023-06-27T20:18:36.033Z,1.27
2023-06-27T20:21:04.109Z,1.25
2023-06-27T20:23:32.202Z,1.17
2023-06-27T20:26:00.453Z,0.98
2023-06-27T20:28:28.633Z,0.90
2023-06-27T20:30:56.815Z,0.90
2023-06-27T20:33:25.292Z,1.00
2023-06-27T20:35:53.789Z,1.52
2023-06-27T20:38:22.156Z,1.35
2023-06-27T20:40:50.333Z,1.65
2023-06-27T20:43:18.403Z,1.00
2023-06-27T20:45:46.858Z,1.63
2023-06-27T20:48:14.957Z,1.30
2023-06-27T20:50:43.296Z,1.02
2023-06-27T20:53:11.224Z,0.90
2023-06-27T20:55:39.102Z,1.40
2023-06-27T20:58:11.012Z,1.20
2023-06-27T21:00:39.551Z,0.90
2023-06-27T21:03:09.792Z,1.15
2023-06-27T21:05:37.630Z,1.30
2023-06-27T21:08:05.530Z,1.23
2023-06-27T21:10:33.128Z,2.17
2023-06-27T21:13:00.868Z,1.25
2023-06-27T21:15:28.462Z,1.20
2023-06-27T21:17:56.085Z,1.33
2023-06-27T21:20:23.659Z,1.02
2023-06-27T21:22:51.334Z,1.20
2023-06-27T21:25:18.957Z,1.00
2023-06-27T21:27:51.468Z,1.38
2023-06-27T21:30:19.446Z,1.67
2023-06-27T21:32:47.347Z,1.10
2023-06-27T21:35:15.042Z,1.23
2023-06-27T21:37:42.662Z,1.00
2023-06-27T21:40:10.952Z,1.00
2023-06-27T21:42:38.630Z,1.08
2023-06-27T21:45:06.957Z,1.13
2023-06-27T21:47:34.720Z,1.15
2023-06-27T21:50:02.405Z,1.40
2023-06-27T21:52:30.046Z,1.42
2023-06-27T21:54:57.773Z,1.48
2023-06-27T21:57:25.319Z,1.45
2023-06-27T21:59:52.892Z,1.60
2023-06-27T22:02:20.650Z,1.80
2023-06-27T22:04:48.463Z,1.30
2023-06-27T22:07:16.498Z,1.20
2023-06-27T22:09:44.170Z,1.02
2023-06-27T22:12:11.756Z,1.10
2023-06-27T22:14:39.306Z,1.23
2023-06-27T22:17:07.251Z,1.10
2023-06-27T22:19:35.036Z,1.08
2023-06-27T22:22:02.582Z,2.40
2023-06-27T22:24:30.336Z,1.58
2023-06-27T22:26:58.127Z,1.48
2023-06-27T22:29:25.858Z,0.85
2023-06-27T22:31:53.676Z,0.85
2023-06-27T22:34:21.331Z,0.75
2023-06-27T22:36:49.167Z,1.92
2023-06-27T22:39:16.911Z,0.90
2023-06-27T22:41:44.946Z,1.10
2023-06-27T22:44:12.478Z,1.08
2023-06-27T22:46:40.198Z,1.85
2023-06-27T22:49:07.898Z,1.00
2023-06-27T22:51:35.536Z,1.55
2023-06-27T22:54:03.184Z,1.02
2023-06-27T22:56:32.190Z,0.57
2023-06-27T22:58:59.948Z,0.80
2023-06-27T23:01:28.270Z,0.93
2023-06-27T23:03:56.280Z,0.93
2023-06-27T23:06:23.891Z,1.40
2023-06-27T23:08:51.549Z,1.10
2023-06-27T23:11:19.178Z,1.17
2023-06-27T23:13:46.781Z,1.08
2023-06-27T23:16:14.849Z,1.25
2023-06-27T23:18:43.604Z,1.13
2023-06-27T23:21:11.631Z,0.95
2023-06-27T23:23:40.037Z,0.80
2023-06-27T23:26:14.181Z,0.77
2023-06-27T23:28:49.575Z,1.33
2023-06-27T23:31:20.883Z,1.17
2023-06-27T23:33:49.278Z,1.77
2023-06-27T23:36:16.900Z,1.00
2023-06-27T23:38:44.517Z,1.08
2023-06-27T23:41:12.124Z,0.95
2023-06-27T23:43:39.739Z,1.33
2023-06-27T23:46:07.457Z,1.08
2023-06-27T23:48:35.148Z,0.93
2023-06-27T23:51:02.739Z,1.20
2023-06-27T23:53:30.487Z,1.00
2023-06-27T23:55:58.084Z,1.10
2023-06-27T23:58:25.648Z,1.08
